This is the latest recevied weather packets stored in our database for station/object K0KDS. If no packets are shown the sender has not sent any weather packets the latest 10 day(s).
| Time | Temp. | Humidity | Pressure | Rain* | Wind** | Luminosity | Snow |
|---|---|---|---|---|---|---|---|
| 1777321042 | 16.67° C | 84% | 1000 hPa | 0 mm | - | - | - |
| 1777320142 | 17.78° C | 81% | 999.7 hPa | 0 mm | - | - | - |
| 1777319242 | 18.89° C | 81% | 999.3 hPa | 0 mm | - | - | - |
| 1777318342 | 20.56° C | 75% | 998.9 hPa | 0 mm | - | - | - |
| 1777317442 | 20.56° C | 74% | 998.5 hPa | 0 mm | - | - | - |
| 1777316542 | 21.11° C | 71% | 998.3 hPa | 0 mm | - | - | - |
| 1777315642 | 20.56° C | 75% | 998.2 hPa | 0 mm | - | - | - |
| 1777314742 | 21.11° C | 74% | 998 hPa | 0 mm | - | - | - |
| 1777313842 | 20.56° C | 74% | 997.9 hPa | 0 mm | - | - | - |
| 1777312942 | 20.56° C | 74% | 998 hPa | 0 mm | - | - | - |
| 1777312042 | 21.11° C | 71% | 997.9 hPa | 0 mm | - | - | - |
| 1777311142 | 21.11° C | 72% | 997.9 hPa | 0 mm | - | - | - |
| 1777310242 | 20.56° C | 73% | 998 hPa | 0 mm | - | - | - |
| 1777309342 | 20.56° C | 73% | 998 hPa | 0 mm | - | - | - |
| 1777308442 | 20.56° C | 71% | 998 hPa | 0 mm | - | - | - |
| 1777307542 | 21.11° C | 76% | 998 hPa | 0 mm | - | - | - |
| 1777306642 | 20° C | 78% | 998.1 hPa | 0 mm | - | - | - |
| 1777305742 | 19.44° C | 78% | 998.1 hPa | 0 mm | - | - | - |
| 1777304842 | 18.89° C | 80% | 998 hPa | 0 mm | - | - | - |
| 1777303942 | 18.33° C | 82% | 997.7 hPa | 0 mm | - | - | - |
| 1777303042 | 18.33° C | 84% | 997.4 hPa | 0 mm | - | - | - |
| 1777302142 | 17.78° C | 87% | 997.4 hPa | 0 mm | - | - | - |
| 1777301242 | 16.67° C | 90% | 996.7 hPa | 0 mm | - | - | - |
| 1777300342 | 16.11° C | 90% | 996.8 hPa | 0 mm | - | - | - |
| 1777299442 | 15.56° C | 94% | 996.9 hPa | 0 mm | - | - | - |
* Rain latest hour (hover to see other rain measurements)
** Current wind speed in m/s (hover to see current wind gust speed)